createdAt,value
2023-09-16T00:01:08.558Z,20.05
2023-09-16T00:03:11.321Z,20.42
2023-09-16T00:07:24.603Z,19.40
2023-09-16T00:09:29.778Z,20.95
2023-09-16T00:11:37.786Z,19.52
2023-09-16T00:13:45.980Z,20.60
2023-09-16T00:15:52.794Z,22.08
2023-09-16T00:18:00.039Z,20.95
2023-09-16T00:20:06.067Z,21.65
2023-09-16T00:22:15.068Z,21.95
2023-09-16T00:24:20.301Z,22.08
2023-09-16T00:26:25.361Z,23.52
2023-09-16T00:28:31.497Z,24.00
2023-09-16T00:30:37.044Z,24.92
2023-09-16T00:32:42.296Z,25.08
2023-09-16T00:34:44.975Z,22.85
2023-09-16T00:36:50.121Z,26.08
2023-09-16T00:38:59.078Z,23.75
2023-09-16T00:41:04.315Z,26.75
2023-09-16T00:43:06.996Z,25.13
2023-09-16T00:47:18.748Z,25.80
2023-09-16T00:49:23.920Z,24.52
2023-09-16T00:51:29.236Z,25.73
2023-09-16T00:53:35.687Z,26.33
2023-09-16T00:55:41.284Z,27.70
2023-09-16T00:57:51.780Z,28.40
2023-09-16T00:59:57.661Z,28.52
2023-09-16T01:02:04.395Z,28.90
2023-09-16T01:04:11.213Z,30.55
2023-09-16T01:06:18.439Z,28.83
2023-09-16T01:08:24.140Z,29.58
2023-09-16T01:10:29.176Z,29.73
2023-09-16T01:12:34.358Z,30.08
2023-09-16T01:14:39.480Z,31.45
2023-09-16T01:16:50.220Z,30.15
2023-09-16T01:19:06.877Z,29.58
2023-09-16T01:21:12.600Z,32.38
2023-09-16T01:23:21.010Z,29.70
2023-09-16T01:25:28.196Z,31.45
2023-09-16T01:27:33.532Z,32.08
2023-09-16T01:29:39.450Z,29.23
2023-09-16T01:31:42.778Z,31.58
2023-09-16T01:33:52.888Z,31.60
2023-09-16T01:36:09.337Z,29.23
2023-09-16T01:38:17.314Z,29.70
2023-09-16T01:40:24.281Z,29.50
2023-09-16T01:42:35.014Z,28.30
2023-09-16T01:44:45.043Z,31.05
2023-09-16T01:46:50.183Z,30.40
2023-09-16T01:48:58.141Z,26.30
2023-09-16T01:51:03.395Z,28.92
2023-09-16T01:53:08.718Z,31.55
2023-09-16T01:55:13.861Z,32.00
2023-09-16T01:57:18.860Z,33.78
2023-09-16T01:59:25.549Z,31.75
2023-09-16T02:01:30.614Z,30.33
2023-09-16T02:03:36.052Z,33.45
2023-09-16T02:05:41.071Z,32.40
2023-09-16T02:07:48.328Z,34.05
2023-09-16T02:09:54.940Z,33.58
2023-09-16T02:12:00.821Z,33.40
2023-09-16T02:14:06.099Z,35.03
2023-09-16T02:16:14.921Z,32.28
2023-09-16T02:18:19.866Z,30.13
2023-09-16T02:20:25.108Z,33.95
2023-09-16T02:22:30.135Z,32.78
2023-09-16T02:24:36.075Z,31.52
2023-09-16T02:26:41.115Z,30.00
2023-09-16T02:28:46.645Z,34.15
2023-09-16T02:30:52.765Z,30.75
2023-09-16T02:33:00.446Z,31.92
2023-09-16T02:35:05.545Z,32.65
2023-09-16T02:37:12.988Z,33.80
2023-09-16T02:39:18.399Z,34.05
2023-09-16T02:41:23.749Z,32.88
2023-09-16T02:43:28.833Z,32.38
2023-09-16T02:45:34.175Z,30.23
2023-09-16T02:47:39.397Z,31.65
2023-09-16T02:49:47.763Z,33.53
2023-09-16T02:51:52.822Z,34.78
2023-09-16T02:53:59.025Z,34.22
2023-09-16T02:56:04.067Z,33.38
2023-09-16T02:58:09.978Z,37.42
2023-09-16T03:00:18.645Z,32.65
2023-09-16T03:02:24.024Z,35.35
2023-09-16T03:04:29.141Z,34.55
2023-09-16T03:06:36.847Z,35.70
2023-09-16T03:08:42.462Z,34.25
2023-09-16T03:10:47.705Z,34.80
2023-09-16T03:12:52.949Z,36.38
2023-09-16T03:15:01.111Z,34.70
2023-09-16T03:17:07.737Z,36.63
2023-09-16T03:19:15.329Z,35.70
2023-09-16T03:21:19.041Z,38.70
2023-09-16T03:23:26.491Z,40.45
2023-09-16T03:25:33.772Z,39.40
2023-09-16T03:27:39.132Z,35.50
2023-09-16T03:29:44.465Z,40.63
2023-09-16T03:31:49.433Z,40.95
2023-09-16T03:33:57.798Z,38.53
2023-09-16T03:36:02.951Z,37.90
2023-09-16T03:38:08.145Z,36.83
2023-09-16T03:40:16.351Z,37.17
2023-09-16T03:42:21.253Z,35.60
2023-09-16T03:44:26.231Z,37.53
2023-09-16T03:46:32.132Z,37.38
2023-09-16T03:48:37.250Z,35.53
2023-09-16T03:50:42.842Z,34.83
2023-09-16T03:52:45.432Z,36.03
2023-09-16T03:54:53.327Z,35.72
2023-09-16T03:57:01.505Z,33.78
2023-09-16T03:59:06.787Z,34.00
2023-09-16T04:01:12.538Z,35.65
2023-09-16T04:03:17.589Z,39.38
2023-09-16T04:05:23.010Z,35.80
2023-09-16T04:07:28.501Z,44.80
2023-09-16T04:09:30.832Z,43.25
2023-09-16T04:11:37.190Z,40.65
2023-09-16T04:13:44.818Z,38.53
2023-09-16T04:15:49.870Z,34.78
2023-09-16T04:17:56.976Z,42.05
2023-09-16T04:19:59.442Z,37.42
2023-09-16T04:22:04.554Z,37.38
2023-09-16T04:24:07.621Z,32.30
2023-09-16T04:26:15.171Z,34.70
2023-09-16T04:28:20.222Z,33.10
2023-09-16T04:30:28.086Z,34.25
2023-09-16T04:32:33.377Z,35.22
2023-09-16T04:34:38.362Z,34.20
2023-09-16T04:36:46.536Z,34.22
2023-09-16T04:38:51.536Z,30.85
2023-09-16T04:40:56.991Z,28.55
2023-09-16T04:43:05.292Z,28.23
2023-09-16T04:45:11.342Z,28.10
2023-09-16T04:47:20.507Z,28.55
2023-09-16T04:49:26.314Z,28.00
2023-09-16T04:51:31.753Z,27.70
2023-09-16T04:53:37.063Z,30.33
2023-09-16T04:55:43.058Z,28.90
2023-09-16T04:57:46.429Z,27.25
2023-09-16T04:59:52.216Z,27.45
2023-09-16T05:01:57.223Z,27.83
2023-09-16T05:04:04.966Z,25.70
2023-09-16T05:06:10.439Z,27.90
2023-09-16T05:08:15.606Z,25.95
2023-09-16T05:10:20.634Z,26.05
2023-09-16T05:12:25.761Z,25.08
2023-09-16T05:14:31.206Z,27.08
2023-09-16T05:16:33.826Z,24.55
2023-09-16T05:18:39.124Z,21.90
2023-09-16T05:20:48.948Z,25.80
2023-09-16T05:22:57.581Z,24.38
2023-09-16T05:25:00.285Z,23.67
2023-09-16T05:27:05.368Z,23.63
2023-09-16T05:29:10.658Z,23.52
2023-09-16T05:31:16.015Z,22.05
2023-09-16T05:33:24.080Z,22.85
2023-09-16T05:35:29.096Z,22.63
2023-09-16T05:37:36.780Z,23.13
2023-09-16T05:39:43.372Z,23.05
2023-09-16T05:41:50.556Z,21.50
2023-09-16T05:43:56.335Z,22.00
2023-09-16T05:46:03.186Z,22.50
2023-09-16T05:48:09.493Z,20.13
2023-09-16T05:50:14.632Z,19.65
2023-09-16T05:52:19.601Z,21.90
2023-09-16T05:54:29.474Z,21.13
2023-09-16T05:56:38.913Z,19.77
2023-09-16T05:58:44.327Z,20.20
2023-09-16T06:00:57.167Z,20.48
2023-09-16T06:03:02.421Z,19.73
2023-09-16T06:05:08.451Z,20.17
2023-09-16T06:07:14.349Z,21.02
2023-09-16T06:09:19.907Z,20.65
2023-09-16T06:11:30.666Z,21.15
2023-09-16T06:13:36.123Z,21.35
2023-09-16T06:15:41.611Z,20.83
2023-09-16T06:17:49.397Z,19.52
2023-09-16T06:19:57.610Z,21.02
2023-09-16T06:22:02.789Z,20.60
2023-09-16T06:24:09.112Z,22.40
2023-09-16T06:26:14.698Z,20.80
2023-09-16T06:28:22.204Z,21.25
2023-09-16T06:30:27.222Z,21.25
2023-09-16T06:32:32.131Z,21.65
2023-09-16T06:34:37.126Z,21.48
2023-09-16T06:36:42.699Z,20.85
2023-09-16T06:38:48.194Z,21.85
2023-09-16T06:40:53.889Z,21.80
2023-09-16T06:43:01.564Z,21.30
2023-09-16T06:45:10.820Z,21.58
2023-09-16T06:47:15.959Z,22.85
2023-09-16T06:49:21.712Z,20.88
2023-09-16T06:51:26.727Z,21.98
2023-09-16T06:53:33.332Z,21.90
2023-09-16T06:55:39.191Z,21.17
2023-09-16T07:00:12.705Z,22.00
2023-09-16T07:02:20.930Z,21.83
2023-09-16T07:04:29.962Z,23.02
2023-09-16T07:06:35.596Z,23.52
2023-09-16T07:11:19.219Z,22.63
2023-09-16T07:13:24.394Z,22.98
2023-09-16T07:15:29.387Z,22.60
2023-09-16T07:17:40.243Z,22.63
2023-09-16T07:19:45.405Z,22.73
2023-09-16T07:21:50.406Z,21.75
2023-09-16T07:24:03.354Z,21.15
2023-09-16T07:26:08.958Z,21.33
2023-09-16T07:28:14.167Z,20.88
2023-09-16T07:30:19.427Z,22.00
2023-09-16T07:32:24.458Z,21.85
2023-09-16T07:34:32.710Z,21.10
2023-09-16T07:36:37.912Z,20.83
2023-09-16T07:38:43.052Z,21.02
2023-09-16T07:40:48.043Z,21.10
2023-09-16T07:42:55.352Z,20.52
2023-09-16T07:45:00.350Z,20.52
2023-09-16T07:47:05.277Z,21.80
2023-09-16T07:49:10.523Z,19.60
2023-09-16T07:51:18.122Z,21.50
2023-09-16T07:53:23.236Z,20.10
2023-09-16T07:55:30.644Z,20.23
2023-09-16T07:57:35.581Z,21.85
2023-09-16T07:59:38.309Z,20.35
2023-09-16T08:01:45.940Z,20.77
2023-09-16T08:03:51.370Z,19.52
2023-09-16T08:18:32.443Z,18.15
2023-09-16T08:23:35.494Z,22.05
2023-09-16T08:26:12.941Z,20.45
2023-09-16T08:28:43.780Z,19.40
2023-09-16T08:31:02.420Z,19.55
2023-09-16T08:33:34.604Z,19.83
2023-09-16T08:36:01.998Z,19.93
2023-09-16T08:38:29.574Z,18.45
2023-09-16T08:41:08.905Z,18.30
2023-09-16T08:43:45.937Z,18.58
2023-09-16T08:46:19.429Z,16.42
2023-09-16T08:48:38.032Z,18.08
2023-09-16T08:50:44.454Z,18.42
2023-09-16T08:52:56.191Z,18.40
2023-09-16T08:57:31.129Z,16.50
2023-09-16T08:59:49.341Z,17.35
2023-09-16T09:04:32.287Z,16.95
2023-09-16T09:06:48.687Z,17.25
2023-09-16T09:08:57.109Z,15.60
2023-09-16T09:11:05.228Z,16.13
2023-09-16T09:13:27.428Z,14.93
2023-09-16T09:15:38.832Z,15.33
2023-09-16T09:17:50.881Z,15.70
2023-09-16T09:20:04.773Z,15.30
2023-09-16T09:22:11.490Z,14.65
2023-09-16T09:24:17.559Z,13.18
2023-09-16T09:26:35.018Z,14.13
2023-09-16T09:31:12.507Z,12.32
2023-09-16T09:33:26.125Z,13.55
2023-09-16T09:35:52.425Z,12.57
2023-09-16T09:38:04.001Z,12.90
2023-09-16T09:40:11.013Z,13.18
2023-09-16T09:42:23.940Z,11.05
2023-09-16T09:44:56.351Z,11.25
2023-09-16T09:47:19.627Z,12.13
2023-09-16T09:49:25.375Z,11.13
2023-09-16T09:55:48.281Z,10.30
2023-09-16T09:57:59.904Z,11.77
2023-09-16T10:02:55.868Z,10.63
2023-09-16T10:05:20.662Z,10.23
2023-09-16T10:07:35.632Z,11.95
2023-09-16T10:09:49.385Z,11.10
2023-09-16T10:12:01.052Z,11.27
2023-09-16T10:14:14.937Z,11.60
2023-09-16T10:16:40.126Z,12.88
2023-09-16T10:19:03.883Z,10.90
2023-09-16T10:21:17.572Z,10.60
2023-09-16T10:23:44.351Z,10.60
2023-09-16T10:26:02.132Z,11.18
2023-09-16T10:28:22.089Z,11.30
2023-09-16T10:30:51.453Z,9.82
2023-09-16T10:33:19.113Z,9.48
2023-09-16T10:38:07.580Z,10.10
2023-09-16T10:40:32.710Z,9.05
2023-09-16T10:42:44.317Z,9.73
2023-09-16T10:45:14.622Z,9.70
2023-09-16T10:47:50.019Z,8.98
2023-09-16T10:50:14.876Z,7.95
2023-09-16T10:53:22.722Z,8.85
2023-09-16T10:55:46.358Z,8.45
2023-09-16T10:58:33.479Z,9.20
2023-09-16T11:01:00.463Z,8.15
2023-09-16T11:03:10.862Z,8.05
2023-09-16T11:05:30.715Z,9.30
2023-09-16T11:07:38.337Z,8.43
2023-09-16T11:09:54.425Z,9.32
2023-09-16T11:17:12.670Z,9.07
2023-09-16T11:20:02.621Z,8.77
2023-09-16T11:22:29.545Z,8.80
2023-09-16T11:24:47.723Z,7.75
2023-09-16T11:27:03.980Z,9.20
2023-09-16T11:29:29.894Z,6.68
2023-09-16T11:32:07.200Z,6.57
2023-09-16T11:34:58.556Z,7.57
2023-09-16T11:37:08.066Z,7.05
2023-09-16T11:39:28.704Z,7.25
2023-09-16T11:41:46.370Z,6.47
2023-09-16T11:44:39.643Z,7.22
2023-09-16T11:47:08.741Z,7.68
2023-09-16T11:49:30.583Z,6.25
2023-09-16T11:52:06.786Z,6.22
2023-09-16T11:54:32.445Z,5.75
2023-09-16T12:00:03.723Z,7.63
2023-09-16T12:02:26.473Z,7.78
2023-09-16T12:04:48.462Z,7.38
2023-09-16T12:07:21.488Z,7.40
2023-09-16T12:09:58.973Z,5.85
2023-09-16T12:12:33.122Z,6.15
2023-09-16T12:14:47.119Z,14.00
2023-09-16T12:17:15.767Z,6.13
2023-09-16T12:20:05.180Z,8.15
2023-09-16T12:22:30.795Z,7.10
2023-09-16T12:24:47.955Z,5.55
2023-09-16T12:27:23.803Z,7.75
2023-09-16T12:34:47.654Z,7.05
2023-09-16T12:37:28.361Z,6.40
2023-09-16T12:40:06.816Z,4.75
2023-09-16T12:42:18.117Z,5.68
2023-09-16T12:47:11.317Z,6.47
2023-09-16T12:49:25.775Z,4.78
2023-09-16T12:51:47.266Z,4.57
2023-09-16T12:54:21.386Z,5.10
2023-09-16T12:56:37.606Z,4.80
2023-09-16T12:59:03.202Z,4.72
2023-09-16T13:01:12.957Z,4.55
2023-09-16T13:03:52.738Z,4.82
2023-09-16T13:06:04.174Z,4.20
2023-09-16T13:10:45.955Z,4.93
2023-09-16T13:13:02.506Z,4.20
2023-09-16T13:15:17.592Z,3.90
2023-09-16T13:17:25.729Z,4.18
2023-09-16T13:19:44.515Z,3.78
2023-09-16T13:21:58.189Z,3.90
2023-09-16T13:24:05.452Z,4.18
2023-09-16T13:26:17.360Z,4.93
2023-09-16T13:28:24.691Z,4.60
2023-09-16T13:32:55.918Z,4.80
2023-09-16T13:35:19.053Z,4.80
2023-09-16T13:37:25.446Z,5.82
2023-09-16T13:39:50.057Z,6.03
2023-09-16T13:42:06.352Z,8.20
2023-09-16T13:44:16.818Z,8.20
2023-09-16T13:46:50.002Z,8.40
2023-09-16T13:48:57.119Z,9.73
2023-09-16T13:51:07.135Z,8.20
2023-09-16T13:53:29.401Z,7.65
2023-09-16T13:55:52.581Z,6.80
2023-09-16T13:58:00.582Z,6.72
2023-09-16T14:00:06.199Z,5.95
2023-09-16T14:02:26.778Z,5.95
2023-09-16T14:04:42.027Z,6.38
2023-09-16T14:06:55.632Z,6.35
2023-09-16T14:09:05.797Z,5.45
2023-09-16T14:11:28.606Z,5.38
2023-09-16T14:15:44.637Z,4.57
2023-09-16T14:17:50.821Z,5.28
2023-09-16T14:20:04.399Z,5.15
2023-09-16T14:22:30.851Z,4.65
2023-09-16T14:24:47.199Z,4.53
2023-09-16T14:27:03.902Z,4.60
2023-09-16T14:29:10.933Z,4.35
2023-09-16T14:31:21.804Z,4.07
2023-09-16T14:33:29.019Z,4.32
2023-09-16T14:35:46.933Z,3.50
2023-09-16T14:37:56.989Z,4.28
2023-09-16T14:40:06.231Z,3.50
2023-09-16T14:42:16.243Z,3.67
2023-09-16T14:44:22.213Z,3.97
2023-09-16T14:46:41.957Z,3.92
2023-09-16T14:48:49.000Z,4.05
2023-09-16T14:51:01.465Z,3.90
2023-09-16T14:53:17.052Z,4.57
2023-09-16T14:55:28.771Z,3.83
2023-09-16T14:57:35.506Z,4.00
2023-09-16T14:59:42.493Z,3.80
2023-09-16T15:01:49.349Z,4.32
2023-09-16T15:03:56.373Z,3.85
2023-09-16T15:06:04.164Z,3.90
2023-09-16T15:08:14.198Z,3.50
2023-09-16T15:10:20.991Z,3.55
2023-09-16T15:12:32.523Z,3.70
2023-09-16T15:14:40.107Z,4.18
2023-09-16T15:16:46.836Z,3.80
2023-09-16T15:18:53.152Z,3.38
2023-09-16T15:21:02.486Z,3.58
2023-09-16T15:23:12.596Z,3.58
2023-09-16T15:25:27.464Z,3.85
2023-09-16T15:27:39.609Z,3.67
2023-09-16T15:29:49.904Z,3.95
2023-09-16T15:32:13.716Z,3.88
2023-09-16T15:34:26.255Z,3.50
2023-09-16T15:36:43.973Z,3.40
2023-09-16T15:38:52.493Z,3.75
2023-09-16T15:41:08.173Z,3.53
2023-09-16T15:43:17.582Z,4.18
2023-09-16T15:45:37.426Z,3.75
2023-09-16T15:47:44.630Z,3.80
2023-09-16T15:49:58.170Z,4.13
2023-09-16T15:52:09.642Z,4.35
2023-09-16T15:54:20.844Z,4.78
2023-09-16T15:56:33.022Z,4.10
2023-09-16T15:58:43.634Z,4.25
2023-09-16T16:01:00.222Z,3.83
2023-09-16T16:03:11.055Z,4.57
2023-09-16T16:05:17.148Z,3.78
2023-09-16T16:07:34.686Z,3.90
2023-09-16T16:09:43.939Z,3.85
2023-09-16T16:11:51.925Z,3.67
2023-09-16T16:13:56.951Z,3.65
2023-09-16T16:15:59.673Z,4.00
2023-09-16T16:18:05.420Z,4.25
2023-09-16T16:20:11.963Z,3.88
2023-09-16T16:22:18.219Z,3.95
2023-09-16T16:24:23.246Z,3.85
2023-09-16T16:26:29.616Z,3.85
2023-09-16T16:28:37.372Z,4.05
2023-09-16T16:30:45.492Z,4.82
2023-09-16T16:32:56.682Z,4.32
2023-09-16T16:35:04.360Z,4.05
2023-09-16T16:37:10.047Z,5.10
2023-09-16T16:39:15.442Z,3.78
2023-09-16T16:41:21.191Z,3.63
2023-09-16T16:43:26.334Z,4.57
2023-09-16T16:45:32.075Z,4.55
2023-09-16T16:47:38.910Z,4.07
2023-09-16T16:50:01.851Z,4.20
2023-09-16T16:52:09.260Z,3.90
2023-09-16T16:54:15.285Z,4.10
2023-09-16T16:56:17.891Z,4.50
2023-09-16T16:58:23.035Z,4.68
2023-09-16T17:00:31.099Z,5.13
2023-09-16T17:02:39.354Z,4.63
2023-09-16T17:04:44.994Z,4.72
2023-09-16T17:06:52.757Z,4.45
2023-09-16T17:09:02.113Z,4.18
2023-09-16T17:11:07.194Z,4.60
2023-09-16T17:13:13.196Z,4.90
2023-09-16T17:15:18.171Z,4.45
2023-09-16T17:17:26.793Z,4.50
2023-09-16T17:19:34.208Z,5.05
2023-09-16T17:21:40.054Z,4.45
2023-09-16T17:23:46.246Z,4.60
2023-09-16T17:25:51.392Z,4.68
2023-09-16T17:27:56.781Z,4.80
2023-09-16T17:30:02.535Z,4.75
2023-09-16T17:32:09.983Z,5.05
2023-09-16T17:34:19.759Z,5.28
2023-09-16T17:36:27.849Z,4.82
2023-09-16T17:38:33.803Z,4.90
2023-09-16T17:40:38.979Z,5.60
2023-09-16T17:42:44.548Z,5.28
2023-09-16T17:44:49.524Z,6.10
2023-09-16T17:46:52.164Z,6.22
2023-09-16T17:48:57.921Z,5.97
2023-09-16T17:51:03.136Z,6.30
2023-09-16T17:53:10.902Z,5.60
2023-09-16T17:55:18.384Z,5.93
2023-09-16T17:57:25.960Z,5.70
2023-09-16T17:59:33.665Z,6.35
2023-09-16T18:01:36.159Z,5.90
2023-09-16T18:05:49.877Z,5.90
2023-09-16T18:08:02.589Z,6.25
2023-09-16T18:10:12.235Z,5.78
2023-09-16T18:12:20.653Z,5.75
2023-09-16T18:14:26.129Z,6.13
2023-09-16T18:16:33.365Z,6.55
2023-09-16T18:18:38.362Z,5.57
2023-09-16T18:20:49.129Z,6.65
2023-09-16T18:22:59.796Z,5.97
2023-09-16T18:25:10.049Z,5.78
2023-09-16T18:27:19.517Z,5.65
2023-09-16T18:29:25.285Z,6.05
2023-09-16T18:31:48.040Z,6.13
2023-09-16T18:33:54.402Z,6.32
2023-09-16T18:36:00.508Z,5.80
2023-09-16T18:38:19.670Z,6.53
2023-09-16T18:40:25.986Z,5.97
2023-09-16T18:42:33.817Z,6.47
2023-09-16T18:44:41.914Z,6.13
2023-09-16T18:46:47.279Z,6.65
2023-09-16T18:48:50.004Z,6.18
2023-09-16T18:50:56.913Z,6.78
2023-09-16T18:52:59.456Z,6.72
2023-09-16T18:55:05.182Z,7.10
2023-09-16T18:57:10.995Z,7.70
2023-09-16T18:59:19.205Z,7.45
2023-09-16T19:01:24.506Z,8.32
2023-09-16T19:03:29.749Z,7.85
2023-09-16T19:05:40.473Z,8.10
2023-09-16T19:07:49.908Z,8.35
2023-09-16T19:09:57.303Z,8.70
2023-09-16T19:12:02.436Z,8.13
2023-09-16T19:14:10.214Z,8.70
2023-09-16T19:16:17.964Z,8.65
2023-09-16T19:18:24.339Z,9.27
2023-09-16T19:20:30.876Z,9.60
2023-09-16T19:22:36.056Z,9.82
2023-09-16T19:24:54.859Z,9.15
2023-09-16T19:27:09.719Z,9.38
2023-09-16T19:29:14.866Z,9.23
2023-09-16T19:31:22.817Z,9.45
2023-09-16T19:33:29.342Z,9.15
2023-09-16T19:35:36.823Z,9.95
2023-09-16T19:37:42.015Z,10.13
2023-09-16T19:39:47.400Z,10.82
2023-09-16T19:41:52.691Z,10.65
2023-09-16T19:43:58.076Z,10.23
2023-09-16T19:46:04.990Z,10.07
2023-09-16T19:48:13.206Z,10.25
2023-09-16T19:50:18.394Z,10.27
2023-09-16T19:52:26.117Z,11.48
2023-09-16T19:54:33.880Z,11.23
2023-09-16T19:56:48.709Z,12.00
2023-09-16T20:01:07.182Z,10.63
2023-09-16T20:03:14.829Z,12.13
2023-09-16T20:05:22.916Z,12.70
2023-09-16T20:07:28.884Z,11.95
2023-09-16T20:09:33.948Z,11.73
2023-09-16T20:11:39.148Z,11.63
2023-09-16T20:13:44.109Z,12.57
2023-09-16T20:15:49.210Z,12.48
2023-09-16T20:17:56.699Z,11.90
2023-09-16T20:20:05.516Z,11.48
2023-09-16T20:22:12.143Z,13.13
2023-09-16T20:24:24.953Z,11.80
2023-09-16T20:29:15.521Z,12.55
2023-09-16T20:31:34.621Z,13.85
2023-09-16T20:33:39.839Z,13.02
2023-09-16T20:36:02.925Z,12.88
2023-09-16T20:38:15.371Z,12.70
2023-09-16T20:40:23.837Z,12.77
2023-09-16T20:42:29.797Z,12.18
2023-09-16T20:44:38.144Z,14.98
2023-09-16T20:46:46.348Z,13.63
2023-09-16T20:48:55.625Z,12.38
2023-09-16T20:51:22.535Z,13.60
2023-09-16T20:54:12.961Z,14.60
2023-09-16T20:56:41.742Z,14.25
2023-09-16T21:21:00.138Z,13.43
2023-09-16T21:23:13.303Z,12.48
2023-09-16T21:25:23.260Z,13.93
2023-09-16T21:27:28.620Z,13.63
2023-09-16T21:29:37.250Z,12.48
2023-09-16T21:31:59.259Z,13.02
2023-09-16T21:34:07.010Z,13.77
2023-09-16T21:36:14.700Z,13.40
2023-09-16T21:38:20.033Z,14.30
2023-09-16T21:40:30.834Z,13.52
2023-09-16T21:42:36.158Z,13.73
2023-09-16T21:44:44.578Z,14.93
2023-09-16T21:46:53.018Z,15.10
2023-09-16T21:49:00.784Z,15.68
2023-09-16T21:51:07.061Z,17.23
2023-09-16T21:53:12.484Z,14.77
2023-09-16T21:55:17.540Z,14.90
2023-09-16T21:57:25.323Z,17.15
2023-09-16T21:59:32.615Z,15.52
2023-09-16T22:01:39.005Z,16.05
2023-09-16T22:40:04.360Z,18.40
2023-09-16T22:42:59.726Z,16.15
2023-09-16T22:46:12.699Z,16.83
2023-09-16T22:49:16.540Z,17.52
2023-09-16T22:52:20.637Z,18.25
2023-09-16T22:55:25.580Z,18.73
2023-09-16T22:58:39.765Z,17.98
2023-09-16T23:07:32.348Z,19.83
2023-09-16T23:13:57.794Z,18.10
2023-09-16T23:16:00.132Z,17.95
2023-09-16T23:21:37.489Z,18.42
2023-09-16T23:24:24.399Z,20.02
2023-09-16T23:27:17.071Z,18.05
2023-09-16T23:30:34.406Z,18.15
2023-09-16T23:32:56.248Z,17.88
2023-09-16T23:35:48.552Z,19.58
2023-09-16T23:38:31.095Z,17.85
2023-09-16T23:40:58.078Z,17.80
2023-09-16T23:43:30.826Z,18.65
2023-09-16T23:46:13.474Z,18.92
2023-09-16T23:48:30.385Z,17.25
2023-09-16T23:50:49.591Z,19.25
2023-09-16T23:53:26.675Z,18.75
2023-09-16T23:56:00.471Z,18.75
2023-09-16T23:58:18.777Z,19.70
